createdAt,value
2018-12-24T00:00:52.642Z,20.37
2018-12-24T00:03:34.056Z,20.80
2018-12-24T00:06:22.283Z,20.20
2018-12-24T00:09:04.074Z,19.93
2018-12-24T00:11:51.873Z,16.90
2018-12-24T00:14:32.912Z,21.50
2018-12-24T00:17:20.703Z,15.63
2018-12-24T00:20:01.205Z,13.70
2018-12-24T00:22:49.108Z,13.47
2018-12-24T00:25:29.478Z,11.03
2018-12-24T00:28:17.557Z,8.60
2018-12-24T00:30:57.621Z,8.10
2018-12-24T00:33:38.824Z,8.53
2018-12-24T00:36:26.843Z,9.77
2018-12-24T00:39:07.612Z,7.43
2018-12-24T00:41:55.552Z,7.50
2018-12-24T00:44:36.569Z,5.43
2018-12-24T00:47:24.523Z,5.40
2018-12-24T00:50:05.498Z,4.77
2018-12-24T00:52:53.407Z,4.97
2018-12-24T00:55:34.337Z,5.17
2018-12-24T00:58:22.267Z,3.53
2018-12-24T01:01:02.715Z,4.77
2018-12-24T01:03:50.705Z,2.10
2018-12-24T01:06:31.703Z,3.40
2018-12-24T01:12:25.899Z,2.17
2018-12-24T01:15:13.720Z,2.20
2018-12-24T01:18:01.678Z,2.87
2018-12-24T01:20:42.858Z,2.57
2018-12-24T01:23:30.813Z,3.17
2018-12-24T01:26:11.561Z,5.93
2018-12-24T01:28:59.525Z,1.83
2018-12-24T01:31:40.154Z,2.83
2018-12-24T01:34:28.067Z,3.00
2018-12-24T01:37:16.183Z,3.53
2018-12-24T01:39:56.731Z,3.20
2018-12-24T01:42:44.718Z,4.20
2018-12-24T01:45:25.509Z,3.77
2018-12-24T01:48:13.449Z,4.53
2018-12-24T01:50:53.962Z,2.90
2018-12-24T01:53:41.843Z,3.33
2018-12-24T01:56:22.639Z,2.80
2018-12-24T01:59:10.514Z,3.70
2018-12-24T02:01:51.627Z,4.90
2018-12-24T02:04:39.573Z,3.13
2018-12-24T02:07:19.921Z,1.43
2018-12-24T02:10:07.806Z,3.07
2018-12-24T02:12:48.845Z,6.33
2018-12-24T02:15:36.852Z,3.57
2018-12-24T02:18:17.438Z,5.70
2018-12-24T02:21:05.570Z,2.27
2018-12-24T02:23:46.013Z,4.73
2018-12-24T02:26:27.085Z,5.93
2018-12-24T02:29:14.917Z,7.63
2018-12-24T02:31:56.273Z,5.20
2018-12-24T02:34:44.238Z,6.20
2018-12-24T02:37:25.477Z,3.97
2018-12-24T02:40:13.394Z,3.80
2018-12-24T02:42:54.494Z,7.00
2018-12-24T02:45:42.510Z,4.23
2018-12-24T02:48:23.433Z,4.47
2018-12-24T02:51:11.519Z,3.50
2018-12-24T02:53:52.324Z,5.43
2018-12-24T02:56:40.267Z,3.93
2018-12-24T02:59:21.358Z,5.57
2018-12-24T03:02:09.352Z,4.50
2018-12-24T03:04:50.534Z,7.23
2018-12-24T03:07:38.565Z,3.37
2018-12-24T03:10:19.629Z,4.13
2018-12-24T03:13:07.698Z,5.80
2018-12-24T03:15:48.192Z,4.93
2018-12-24T03:18:36.176Z,5.87
2018-12-24T03:21:16.703Z,5.50
2018-12-24T03:24:04.852Z,7.33
2018-12-24T03:26:46.012Z,6.30
2018-12-24T03:32:21.613Z,8.07
2018-12-24T03:35:09.769Z,9.37
2018-12-24T03:37:51.253Z,7.60
2018-12-24T03:40:39.100Z,12.53
2018-12-24T03:43:20.069Z,5.43
2018-12-24T03:46:08.066Z,8.43
2018-12-24T03:48:49.126Z,5.60
2018-12-24T03:51:37.184Z,3.00
2018-12-24T03:54:17.646Z,7.60
2018-12-24T03:57:05.694Z,5.73
2018-12-24T03:59:46.975Z,7.03
2018-12-24T04:02:35.270Z,4.97
2018-12-24T04:05:23.197Z,4.53
2018-12-24T04:08:11.678Z,3.33
2018-12-24T04:10:54.124Z,2.60
2018-12-24T04:13:35.306Z,8.03
2018-12-24T04:16:23.586Z,5.60
2018-12-24T04:19:05.094Z,13.27
2018-12-24T04:21:53.194Z,5.97
2018-12-24T04:24:34.429Z,6.63
2018-12-24T04:27:22.322Z,7.10
2018-12-24T04:30:03.586Z,7.43
2018-12-24T04:32:51.536Z,4.37
2018-12-24T04:35:32.431Z,4.83
2018-12-24T04:38:20.432Z,2.40
2018-12-24T04:41:01.158Z,2.97
2018-12-24T04:43:49.214Z,3.93
2018-12-24T04:46:30.624Z,2.57
2018-12-24T04:49:18.517Z,5.63
2018-12-24T04:51:59.569Z,4.73
2018-12-24T04:54:47.363Z,1.90
2018-12-24T04:57:32.483Z,3.93
2018-12-24T05:00:20.342Z,2.43
2018-12-24T05:03:03.084Z,8.53
2018-12-24T05:05:50.966Z,4.03
2018-12-24T05:08:31.610Z,2.57
2018-12-24T05:11:19.515Z,4.20
2018-12-24T05:14:00.722Z,5.30
2018-12-24T05:16:42.371Z,3.90
2018-12-24T05:19:22.902Z,5.93
2018-12-24T05:22:10.705Z,5.73
2018-12-24T05:24:51.376Z,4.60
2018-12-24T05:27:39.270Z,3.17
2018-12-24T05:30:19.948Z,3.80
2018-12-24T05:33:07.772Z,2.43
2018-12-24T05:35:48.881Z,5.53
2018-12-24T05:38:36.710Z,2.77
2018-12-24T05:41:18.692Z,3.10
2018-12-24T05:44:06.678Z,9.10
2018-12-24T05:46:48.471Z,3.30
2018-12-24T05:49:36.404Z,7.07
2018-12-24T05:52:17.550Z,4.07
2018-12-24T05:55:08.425Z,3.10
2018-12-24T05:57:51.910Z,3.80
2018-12-24T06:00:39.629Z,1.63
2018-12-24T06:03:20.874Z,4.70
2018-12-24T06:06:08.603Z,5.23
2018-12-24T06:08:50.649Z,5.60
2018-12-24T06:11:38.632Z,8.20
2018-12-24T06:14:19.807Z,1.63
2018-12-24T06:17:19.819Z,5.53
2018-12-24T06:19:50.769Z,4.70
2018-12-24T06:22:38.600Z,6.43
2018-12-24T06:25:20.383Z,7.03
2018-12-24T06:28:14.004Z,7.50
2018-12-24T06:30:55.257Z,6.43
2018-12-24T06:33:43.299Z,3.60
2018-12-24T06:36:41.456Z,4.67
2018-12-24T06:39:21.257Z,4.40
2018-12-24T06:42:02.457Z,3.90
2018-12-24T06:44:50.267Z,5.50
2018-12-24T06:47:30.869Z,4.93
2018-12-24T06:50:18.602Z,7.77
2018-12-24T06:52:59.147Z,5.37
2018-12-24T06:55:46.902Z,8.23
2018-12-24T06:58:27.433Z,7.67
2018-12-24T07:01:12.310Z,5.00
2018-12-24T07:04:00.193Z,6.50
2018-12-24T07:06:40.495Z,3.60
2018-12-24T07:09:28.338Z,4.93
2018-12-24T07:12:16.112Z,7.03
2018-12-24T07:15:04.093Z,5.63
2018-12-24T07:17:45.231Z,7.93
2018-12-24T07:20:33.087Z,7.57
2018-12-24T07:23:13.496Z,4.43
2018-12-24T07:26:01.351Z,5.70
2018-12-24T07:28:41.835Z,5.53
2018-12-24T07:31:29.828Z,9.17
2018-12-24T07:34:17.584Z,24.77
2018-12-24T07:36:57.857Z,9.83
2018-12-24T07:39:45.586Z,4.47
2018-12-24T07:42:26.167Z,5.73
2018-12-24T07:45:14.006Z,3.97
2018-12-24T07:47:54.824Z,5.37
2018-12-24T07:50:42.558Z,6.90
2018-12-24T07:53:21.546Z,2.23
2018-12-24T07:56:09.310Z,4.27
2018-12-24T07:58:49.745Z,5.87
2018-12-24T08:01:37.670Z,6.20
2018-12-24T08:04:18.913Z,2.70
2018-12-24T08:07:06.660Z,8.67
2018-12-24T08:09:47.124Z,13.40
2018-12-24T08:12:34.866Z,11.97
2018-12-24T08:15:15.927Z,15.30
2018-12-24T08:18:03.764Z,14.83
2018-12-24T08:20:44.848Z,7.73
2018-12-24T08:23:32.715Z,11.73
2018-12-24T08:26:13.276Z,12.17
2018-12-24T08:29:01.151Z,6.00
2018-12-24T08:31:42.302Z,7.30
2018-12-24T08:34:30.160Z,3.47
2018-12-24T08:37:09.497Z,6.03
2018-12-24T08:39:49.922Z,3.57
2018-12-24T08:42:37.810Z,5.73
2018-12-24T08:45:18.146Z,3.17
2018-12-24T08:48:06.140Z,2.70
2018-12-24T08:50:47.219Z,4.83
2018-12-24T08:53:35.305Z,7.47
2018-12-24T08:56:15.966Z,6.17
2018-12-24T08:59:04.043Z,7.70
2018-12-24T09:01:44.947Z,8.37
2018-12-24T09:04:32.926Z,8.40
2018-12-24T09:07:13.742Z,10.53
2018-12-24T09:13:08.168Z,5.73
2018-12-24T09:15:56.132Z,4.43
2018-12-24T09:21:30.934Z,4.20
2018-12-24T09:24:18.990Z,3.87
2018-12-24T09:26:59.665Z,7.13
2018-12-24T09:29:52.633Z,6.10
2018-12-24T09:32:33.206Z,7.37
2018-12-24T09:35:21.373Z,8.30
2018-12-24T09:38:01.923Z,6.90
2018-12-24T09:41:09.179Z,6.03
2018-12-24T09:43:50.281Z,5.67
2018-12-24T09:46:40.957Z,4.10
2018-12-24T09:49:29.700Z,7.60
2018-12-24T09:52:19.897Z,5.80
2018-12-24T09:55:10.825Z,3.93
2018-12-24T10:01:04.735Z,10.00
2018-12-24T10:07:42.727Z,9.07
2018-12-24T10:10:31.140Z,9.33
2018-12-24T10:16:35.375Z,6.03
2018-12-24T10:19:42.602Z,4.03
2018-12-24T10:22:25.106Z,6.00
2018-12-24T10:28:18.151Z,6.53
2018-12-24T10:31:06.091Z,7.13
2018-12-24T10:34:06.658Z,6.33
2018-12-24T10:36:42.412Z,6.33
2018-12-24T10:39:23.431Z,4.63
2018-12-24T10:42:11.516Z,4.13
2018-12-24T10:44:57.488Z,3.23
2018-12-24T10:48:04.602Z,3.10
2018-12-24T10:50:45.365Z,3.17
2018-12-24T10:53:33.165Z,4.30
2018-12-24T10:56:14.418Z,4.00
2018-12-24T10:59:02.185Z,6.63
2018-12-24T11:01:44.719Z,4.10
2018-12-24T11:04:32.696Z,3.60
2018-12-24T11:07:13.448Z,6.20
2018-12-24T11:10:01.222Z,3.33
2018-12-24T11:12:42.105Z,4.00
2018-12-24T11:15:29.836Z,2.53
2018-12-24T11:18:10.260Z,2.67
2018-12-24T11:20:50.723Z,5.13
2018-12-24T11:23:38.600Z,4.27
2018-12-24T11:26:19.659Z,2.83
2018-12-24T11:29:00.300Z,3.07
2018-12-24T11:31:48.034Z,5.80
2018-12-24T11:34:29.315Z,1.90
2018-12-24T11:37:17.179Z,5.00
2018-12-24T11:39:57.667Z,4.37
2018-12-24T11:42:45.443Z,3.63
2018-12-24T11:45:33.718Z,3.00
2018-12-24T11:48:16.286Z,3.80
2018-12-24T11:51:05.057Z,3.43
2018-12-24T11:53:52.833Z,1.70
2018-12-24T11:56:33.486Z,2.40
2018-12-24T11:59:21.392Z,2.53
2018-12-24T12:02:09.756Z,3.00
2018-12-24T12:04:52.226Z,3.13
2018-12-24T12:07:33.409Z,3.73
2018-12-24T12:13:08.006Z,2.30
2018-12-24T12:15:55.963Z,3.33
2018-12-24T12:18:36.404Z,2.57
2018-12-24T12:21:24.428Z,2.37
2018-12-24T12:24:13.988Z,2.17
2018-12-24T12:27:01.813Z,3.90
2018-12-24T12:32:56.549Z,2.37
2018-12-24T12:35:44.447Z,3.63
2018-12-24T12:38:35.244Z,1.97
2018-12-24T12:41:16.351Z,3.30
2018-12-24T12:44:05.883Z,2.40
2018-12-24T12:46:46.796Z,1.97
2018-12-24T12:49:54.523Z,2.30
2018-12-24T12:52:35.029Z,3.33
2018-12-24T12:55:22.916Z,2.87
2018-12-24T12:58:03.406Z,2.57
2018-12-24T13:00:51.276Z,4.03
2018-12-24T13:03:32.048Z,4.10
2018-12-24T13:06:19.918Z,3.53
2018-12-24T13:09:00.297Z,2.40
2018-12-24T13:11:48.112Z,2.77
2018-12-24T13:14:29.318Z,4.50
2018-12-24T13:17:17.126Z,3.57
2018-12-24T13:19:58.223Z,4.93
2018-12-24T13:22:46.007Z,1.80
2018-12-24T13:25:27.030Z,2.20
2018-12-24T13:28:14.986Z,2.97
2018-12-24T13:30:56.339Z,2.67
2018-12-24T13:33:44.430Z,3.30
2018-12-24T13:36:27.212Z,2.57
2018-12-24T13:39:14.977Z,3.50
2018-12-24T13:41:54.078Z,4.27
2018-12-24T13:44:44.449Z,2.80
2018-12-24T13:47:25.371Z,2.70
2018-12-24T13:50:15.908Z,2.10
2018-12-24T13:52:59.022Z,2.33
2018-12-24T13:55:50.931Z,1.53
2018-12-24T13:58:34.149Z,3.90
2018-12-24T14:01:27.441Z,3.83
2018-12-24T14:04:12.112Z,4.30
2018-12-24T14:07:00.127Z,4.93
2018-12-24T14:09:40.854Z,3.57
2018-12-24T14:12:47.857Z,3.13
2018-12-24T14:15:20.191Z,2.17
2018-12-24T14:18:27.643Z,3.63
2018-12-24T14:21:11.341Z,3.83
2018-12-24T14:24:01.748Z,2.23
2018-12-24T14:26:42.993Z,2.03
2018-12-24T14:29:50.325Z,3.53
2018-12-24T14:32:31.204Z,6.03
2018-12-24T14:35:19.010Z,3.03
2018-12-24T14:38:05.797Z,2.60
2018-12-24T14:40:47.114Z,2.07
2018-12-24T14:43:54.572Z,4.60
2018-12-24T14:46:35.487Z,4.10
2018-12-24T14:49:23.621Z,3.73
2018-12-24T14:52:04.270Z,4.57
2018-12-24T14:54:54.571Z,3.70
2018-12-24T14:57:35.388Z,2.77
2018-12-24T15:00:23.445Z,3.53
2018-12-24T15:03:06.415Z,4.00
2018-12-24T15:06:08.452Z,3.27
2018-12-24T15:08:38.938Z,6.93
2018-12-24T15:11:40.724Z,4.60
2018-12-24T15:14:11.469Z,3.33
2018-12-24T15:17:01.581Z,3.00
2018-12-24T15:19:45.181Z,11.33
2018-12-24T15:23:09.933Z,4.27
2018-12-24T15:25:38.757Z,4.10
2018-12-24T15:28:26.633Z,5.10
2018-12-24T15:31:07.455Z,6.03
2018-12-24T15:33:55.422Z,4.50
2018-12-24T15:36:36.273Z,5.20
2018-12-24T15:39:24.140Z,4.63
2018-12-24T15:42:05.304Z,8.53
2018-12-24T15:44:53.292Z,4.43
2018-12-24T15:47:36.183Z,5.37
2018-12-24T15:50:23.908Z,5.90
2018-12-24T15:53:06.113Z,5.07
2018-12-24T15:55:54.084Z,6.57
2018-12-24T15:58:35.037Z,5.10
2018-12-24T16:01:23.005Z,4.77
2018-12-24T16:04:04.055Z,6.63
2018-12-24T16:06:51.893Z,5.53
2018-12-24T16:09:32.904Z,6.47
2018-12-24T16:12:20.937Z,7.10
2018-12-24T16:15:02.378Z,6.17
2018-12-24T16:17:50.303Z,6.80
2018-12-24T16:20:31.005Z,6.73
2018-12-24T16:23:18.941Z,10.80
2018-12-24T16:26:00.084Z,8.33
2018-12-24T16:28:48.044Z,7.77
2018-12-24T16:31:28.506Z,8.33
2018-12-24T16:34:16.466Z,5.77
2018-12-24T16:36:57.737Z,9.70
2018-12-24T16:39:45.756Z,8.60
2018-12-24T16:42:27.330Z,11.03
2018-12-24T16:45:15.220Z,9.63
2018-12-24T16:47:59.739Z,10.53
2018-12-24T16:50:41.975Z,11.30
2018-12-24T16:53:29.938Z,8.23
2018-12-24T16:56:17.960Z,10.27
2018-12-24T16:59:02.177Z,9.60
2018-12-24T17:04:47.676Z,7.30
2018-12-24T17:07:35.691Z,8.60
2018-12-24T17:10:17.172Z,6.77
2018-12-24T17:13:04.975Z,8.50
2018-12-24T17:15:46.160Z,7.63
2018-12-24T17:18:33.975Z,6.60
2018-12-24T17:21:14.685Z,9.33
2018-12-24T17:24:02.695Z,6.53
2018-12-24T17:26:41.798Z,7.57
2018-12-24T17:29:29.663Z,6.50
2018-12-24T17:32:10.235Z,6.33
2018-12-24T17:34:58.059Z,8.50
2018-12-24T17:37:38.746Z,7.80
2018-12-24T17:40:26.810Z,9.30
2018-12-24T17:43:07.689Z,13.53
2018-12-24T17:45:55.758Z,9.70
2018-12-24T17:48:36.038Z,10.10
2018-12-24T17:51:16.946Z,8.90
2018-12-24T17:54:05.065Z,10.00
2018-12-24T17:56:48.764Z,9.43
2018-12-24T18:02:49.274Z,13.13
2018-12-24T18:08:49.083Z,9.43
2018-12-24T18:11:38.760Z,13.53
2018-12-24T18:17:33.062Z,10.87
2018-12-24T18:20:27.106Z,9.63
2018-12-24T18:23:08.625Z,13.23
2018-12-24T18:26:17.777Z,12.47
2018-12-24T18:28:59.317Z,10.50
2018-12-24T18:31:47.572Z,11.07
2018-12-24T18:34:28.666Z,10.23
2018-12-24T18:37:18.973Z,13.57
2018-12-24T18:40:04.051Z,9.67
2018-12-24T18:42:52.044Z,11.07
2018-12-24T18:45:32.609Z,13.83
2018-12-24T18:48:20.517Z,16.03
2018-12-24T18:51:01.005Z,13.07
2018-12-24T18:53:48.983Z,12.63
2018-12-24T18:56:29.634Z,9.63
2018-12-24T18:59:17.459Z,12.83
2018-12-24T19:01:59.076Z,8.60
2018-12-24T19:04:48.100Z,9.53
2018-12-24T19:07:29.707Z,11.83
2018-12-24T19:10:17.510Z,8.90
2018-12-24T19:13:01.325Z,12.43
2018-12-24T19:16:00.974Z,12.50
2018-12-24T19:18:32.300Z,11.43
2018-12-24T19:21:20.169Z,12.07
2018-12-24T19:24:01.459Z,15.87
2018-12-24T19:26:49.336Z,11.10
2018-12-24T19:29:30.301Z,12.93
2018-12-24T19:32:18.136Z,12.37
2018-12-24T19:34:59.313Z,12.60
2018-12-24T19:37:47.500Z,14.77
2018-12-24T19:40:28.533Z,14.63
2018-12-24T19:43:16.344Z,15.20
2018-12-24T19:45:57.001Z,14.70
2018-12-24T19:48:44.855Z,9.57
2018-12-24T19:51:25.619Z,11.60
2018-12-24T19:54:53.791Z,7.57
2018-12-24T19:57:41.596Z,10.20
2018-12-24T20:00:22.257Z,9.07
2018-12-24T20:06:06.692Z,9.40
2018-12-24T20:08:54.801Z,8.63
2018-12-24T20:11:35.523Z,9.97
2018-12-24T20:14:23.428Z,9.40
2018-12-24T20:17:04.061Z,10.17
2018-12-24T20:19:51.832Z,16.00
2018-12-24T20:22:33.210Z,9.13
2018-12-24T20:25:21.017Z,10.10
2018-12-24T20:28:01.636Z,11.90
2018-12-24T20:30:49.693Z,8.03
2018-12-24T20:33:32.630Z,9.37
2018-12-24T20:36:20.811Z,9.10
2018-12-24T20:39:02.035Z,10.33
2018-12-24T20:41:49.809Z,10.23
2018-12-24T20:44:30.341Z,10.40
2018-12-24T20:47:18.128Z,10.73
2018-12-24T20:49:59.885Z,13.00
2018-12-24T20:55:52.826Z,10.13
2018-12-24T20:58:40.593Z,17.10
2018-12-24T21:01:21.949Z,9.40
2018-12-24T21:04:09.850Z,8.93
2018-12-24T21:06:50.826Z,8.90
2018-12-24T21:09:38.980Z,13.60
2018-12-24T21:12:20.408Z,11.43
2018-12-24T21:15:08.338Z,9.77
2018-12-24T21:17:52.567Z,10.93
2018-12-24T21:20:43.348Z,10.70
2018-12-24T21:23:24.081Z,10.90
2018-12-24T21:26:12.249Z,12.90
2018-12-24T21:29:02.519Z,10.30
2018-12-24T21:31:52.299Z,11.20
2018-12-24T21:34:40.379Z,11.13
2018-12-24T21:37:21.678Z,9.50
2018-12-24T21:40:09.946Z,10.27
2018-12-24T21:42:55.047Z,10.93
2018-12-24T21:45:36.410Z,15.70
2018-12-24T21:48:24.243Z,11.87
2018-12-24T21:51:24.480Z,10.20
2018-12-24T21:53:54.955Z,10.43
2018-12-24T21:59:32.856Z,9.13
2018-12-24T22:02:20.904Z,13.83
2018-12-24T22:11:02.477Z,12.37
2018-12-24T22:13:50.846Z,11.40
2018-12-24T22:16:34.543Z,19.53
2018-12-24T22:19:22.921Z,14.93
2018-12-24T22:22:04.231Z,15.30
2018-12-24T22:24:54.491Z,14.67
2018-12-24T22:28:38.245Z,17.00
2018-12-24T22:34:25.371Z,16.40
2018-12-24T22:37:05.968Z,17.30
2018-12-24T22:43:18.470Z,18.33
2018-12-24T22:46:02.155Z,15.97
2018-12-24T22:48:40.946Z,18.00
2018-12-24T22:51:29.656Z,15.40
2018-12-24T22:54:10.764Z,16.90
2018-12-24T22:56:58.820Z,16.93
2018-12-24T22:59:42.167Z,15.23
2018-12-24T23:05:58.766Z,15.83
2018-12-24T23:08:46.946Z,15.70
2018-12-24T23:12:06.579Z,13.77
2018-12-24T23:14:36.875Z,16.10
2018-12-24T23:20:28.007Z,15.37
2018-12-24T23:23:16.396Z,18.90
2018-12-24T23:25:55.690Z,18.90
2018-12-24T23:28:36.776Z,29.90
2018-12-24T23:31:24.984Z,23.60
2018-12-24T23:34:06.451Z,16.83
2018-12-24T23:36:54.881Z,20.47
2018-12-24T23:39:40.304Z,18.70
2018-12-24T23:42:28.420Z,16.33
2018-12-24T23:45:12.905Z,14.43
2018-12-24T23:47:54.008Z,13.93
2018-12-24T23:50:41.852Z,14.77
2018-12-24T23:53:23.068Z,15.00
2018-12-24T23:59:14.604Z,15.20
